Rinard, Iowa
Current Conditions -  °F | °C
As of 7:35 AM on Thursday 30 Oct 2014 (Local Time) from KFOD Reporting Station
Overcast Overcast  
Wind Chill: 39°   Ceiling: 8500
Heat Index: 39°   Visibility: 10mi
Dew Point: 36°   Wind: 0mph
Humidity: 87%   Direction: NA
Pressure: 30.01"   Gusts: NA
Location:  42.34°N, 94.49°W
Report Text: KFOD 301235Z AUTO 00000KT 10SM OVC085 04/02 A3001 RMK AO1
Loading
Personal Weather Stations






























Interactive Weather Map
Tropical Storm Tracking
New forecast layout! Learn more

10-Day Weather Forecast

Advertisements
Track Severe Weather on mobile